Time;durP1;ratioP1;P1;durP2;ratioP2;P2;SDS_P1;SDS_P2;PMS_P1;PMS_P2;Temp;Humidity;BMP_temperature;BMP_pressure;BME280_temperature;BME280_humidity;BME280_pressure;Samples;Min_cycle;Max_cycle;Signal;HPM_P1;HPM_P2
2022/05/19 00:02:13;;;;;;;1.63;1.20;;;;;;;24.40;42.73;100622.25;4975751;28;20420;-74
2022/05/19 00:04:39;;;;;;;5.57;2.20;;;;;;;24.39;43.00;100617.84;4973251;28;20985;-74
2022/05/19 00:07:05;;;;;;;3.80;1.63;;;;;;;24.38;43.27;100620.94;4970869;28;20562;-74
2022/05/19 00:09:31;;;;;;;3.40;1.73;;;;;;;24.35;43.63;100624.38;4975240;28;20800;-74
2022/05/19 00:11:58;;;;;;;1.53;1.43;;;;;;;24.30;43.95;100616.28;4974433;28;20399;-74
2022/05/19 00:14:24;;;;;;;1.50;1.40;;;;;;;24.25;44.02;100615.31;4974783;28;20532;-74
2022/05/19 00:16:49;;;;;;;2.07;1.60;;;;;;;24.21;43.86;100613.53;4975509;28;20496;-74
2022/05/19 00:19:15;;;;;;;2.10;2.00;;;;;;;24.19;43.89;100618.59;4973449;28;20431;-74
2022/05/19 00:21:41;;;;;;;2.15;1.35;;;;;;;24.15;43.88;100612.09;4975620;28;20404;-74
2022/05/19 00:24:08;;;;;;;2.28;1.55;;;;;;;24.13;43.42;100611.63;4974886;28;20412;-74
2022/05/19 00:26:33;;;;;;;1.67;1.58;;;;;;;24.08;43.91;100614.53;4975503;28;20755;-74
2022/05/19 00:28:59;;;;;;;2.67;1.90;;;;;;;24.05;44.16;100618.78;4975248;28;20427;-74
2022/05/19 00:31:26;;;;;;;2.23;1.87;;;;;;;24.04;44.73;100617.13;4973267;28;21031;-74
2022/05/19 00:33:51;;;;;;;2.75;1.63;;;;;;;24.02;44.26;100616.66;4965289;28;20494;-74
2022/05/19 00:36:18;;;;;;;2.80;1.50;;;;;;;23.97;44.49;100613.28;4975345;28;20400;-74
2022/05/19 00:38:44;;;;;;;2.13;1.63;;;;;;;23.94;44.57;100613.94;4975213;28;21160;-74
2022/05/19 00:41:12;;;;;;;4.47;1.80;;;;;;;23.93;44.53;100612.28;4975282;28;20487;-74
2022/05/19 00:43:40;;;;;;;2.47;1.70;;;;;;;23.91;44.52;100614.59;4972276;28;20478;-74
2022/05/19 00:46:11;;;;;;;2.53;1.80;;;;;;;23.89;44.62;100617.69;4968903;28;20495;-74
2022/05/19 00:48:51;;;;;;;2.50;1.80;;;;;;;23.84;44.86;100612.34;4974251;28;20424;-74
2022/05/19 00:51:18;;;;;;;1.98;1.73;;;;;;;23.82;44.88;100608.25;4965318;28;20408;-74
2022/05/19 00:53:49;;;;;;;1.60;1.50;;;;;;;23.78;44.84;100606.13;4973730;28;20519;-74
2022/05/19 00:56:30;;;;;;;1.97;1.87;;;;;;;23.76;44.79;100607.63;4974891;28;20754;-74
2022/05/19 00:59:09;;;;;;;2.65;1.98;;;;;;;23.71;45.08;100608.59;4974615;28;20404;-74
2022/05/19 01:01:38;;;;;;;2.10;1.75;;;;;;;23.67;45.12;100610.41;4972853;28;20415;-74
2022/05/19 01:04:11;;;;;;;5.25;1.85;;;;;;;23.66;45.07;100610.72;4974066;28;20410;-74
2022/05/19 01:06:38;;;;;;;1.83;1.60;;;;;;;23.61;45.35;100608.16;4974762;28;20780;-74
2022/05/19 01:09:10;;;;;;;2.00;1.63;;;;;;;23.55;45.66;100607.50;4974508;28;20978;-74
2022/05/19 01:11:36;;;;;;;1.90;1.70;;;;;;;23.50;45.32;100609.63;4973504;28;20797;-74
2022/05/19 01:14:02;;;;;;;1.60;1.50;;;;;;;23.47;45.56;100610.28;4972366;28;20413;-74
2022/05/19 01:16:28;;;;;;;2.20;1.75;;;;;;;23.31;46.01;100609.94;4974495;28;20424;-74
2022/05/19 01:18:54;;;;;;;2.50;1.80;;;;;;;23.11;46.74;100605.88;4974558;28;20446;-73
2022/05/19 01:21:22;;;;;;;2.40;2.20;;;;;;;23.01;47.03;100613.66;4974330;28;20408;-74
2022/05/19 01:24:06;;;;;;;3.45;2.03;;;;;;;22.87;47.66;100613.00;4973108;28;20450;-74
2022/05/19 01:26:40;;;;;;;2.58;1.85;;;;;;;22.85;48.08;100609.75;4973221;28;20416;-74
2022/05/19 01:29:07;;;;;;;3.93;2.00;;;;;;;22.83;48.58;100612.00;4971681;28;20424;-74
2022/05/19 01:31:36;;;;;;;2.38;2.17;;;;;;;22.81;48.54;100615.09;4973669;28;20439;-74
2022/05/19 01:34:03;;;;;;;2.55;2.13;;;;;;;22.79;48.80;100611.03;4973197;28;20424;-74
2022/05/19 01:36:29;;;;;;;3.35;2.25;;;;;;;22.77;48.96;100605.81;4973945;28;20475;-74
2022/05/19 01:39:18;;;;;;;2.45;1.80;;;;;;;22.78;48.75;100607.47;4973916;28;20903;-74
2022/05/19 01:41:53;;;;;;;2.90;1.80;;;;;;;22.79;48.68;100598.00;4971800;28;20408;-74
2022/05/19 01:44:36;;;;;;;2.13;1.93;;;;;;;22.79;48.64;100605.50;4969979;28;20765;-74
2022/05/19 01:47:12;;;;;;;3.35;1.80;;;;;;;22.79;48.23;100598.00;4974024;28;20459;-74
2022/05/19 01:49:51;;;;;;;3.50;1.75;;;;;;;22.78;48.35;100604.69;4971792;28;20495;-74
2022/05/19 01:52:37;;;;;;;3.00;1.88;;;;;;;22.74;48.09;100607.28;4963574;28;20672;-74
2022/05/19 01:55:16;;;;;;;1.92;1.83;;;;;;;22.73;48.34;100604.84;4967272;28;20440;-74
2022/05/19 01:57:53;;;;;;;1.95;1.75;;;;;;;22.70;48.33;100595.25;4959474;28;20539;-74
2022/05/19 02:00:21;;;;;;;1.67;1.58;;;;;;;22.69;48.33;100601.91;4973607;28;20407;-74
2022/05/19 02:02:56;;;;;;;1.63;1.52;;;;;;;22.64;48.25;100588.22;4971829;28;20405;-74
2022/05/19 02:05:38;;;;;;;1.63;1.63;;;;;;;22.54;48.13;100591.28;4972909;28;20926;-73
2022/05/19 02:08:07;;;;;;;2.92;1.80;;;;;;;22.51;48.25;100596.63;4974008;28;20772;-73
2022/05/19 02:10:38;;;;;;;2.88;1.70;;;;;;;22.51;48.37;100596.63;4971905;28;20418;-74
2022/05/19 02:13:04;;;;;;;2.28;1.80;;;;;;;22.50;48.80;100593.06;4970943;28;20426;-73
2022/05/19 02:15:34;;;;;;;2.27;1.80;;;;;;;22.50;48.83;100595.00;4972655;28;20447;-74
2022/05/19 02:18:00;;;;;;;2.70;1.75;;;;;;;22.48;48.52;100594.50;4973418;28;20396;-74
2022/05/19 02:20:28;;;;;;;2.38;1.85;;;;;;;22.47;48.43;100598.41;4972283;28;20464;-74
2022/05/19 02:22:53;;;;;;;5.80;2.15;;;;;;;22.45;48.44;100601.50;4972484;28;20427;-74
2022/05/19 02:25:31;;;;;;;1.92;1.83;;;;;;;22.43;48.12;100595.47;4973370;28;20871;-74
2022/05/19 02:28:17;;;;;;;1.83;1.73;;;;;;;22.41;48.26;100594.16;4971535;28;20871;-74
2022/05/19 02:30:43;;;;;;;3.83;1.95;;;;;;;22.37;48.66;100590.41;4973070;28;20455;-74
2022/05/19 02:33:12;;;;;;;1.80;1.70;;;;;;;22.33;48.38;100590.22;4972148;28;20441;-74
2022/05/19 02:35:38;;;;;;;1.95;1.75;;;;;;;22.29;48.08;100593.97;4973134;28;20403;-73
2022/05/19 02:38:03;;;;;;;1.80;1.70;;;;;;;22.28;48.54;100595.09;4972225;28;20408;-74
2022/05/19 02:40:31;;;;;;;3.35;2.13;;;;;;;22.29;48.56;100596.72;4973069;28;20396;-74
2022/05/19 02:42:57;;;;;;;2.50;1.70;;;;;;;22.30;48.42;100595.56;4971571;28;21076;-74
2022/05/19 02:45:23;;;;;;;2.30;2.05;;;;;;;22.27;48.27;100591.50;4972207;28;20498;-73
2022/05/19 02:47:49;;;;;;;3.13;1.63;;;;;;;22.28;48.55;100592.34;4972951;28;20419;-74
2022/05/19 02:50:16;;;;;;;1.83;1.73;;;;;;;22.27;48.19;100602.56;4967687;28;20448;-74
2022/05/19 02:52:42;;;;;;;2.13;1.95;;;;;;;22.24;48.37;100605.97;4971675;28;20401;-74
2022/05/19 02:55:08;;;;;;;3.53;1.60;;;;;;;22.20;48.45;100602.19;4969803;28;20412;-74
2022/05/19 02:57:33;;;;;;;1.73;1.63;;;;;;;22.17;48.35;100603.66;4972611;28;20455;-74
2022/05/19 02:59:59;;;;;;;2.13;1.73;;;;;;;22.14;48.46;100604.31;4972613;28;20399;-74
2022/05/19 03:02:25;;;;;;;2.10;1.90;;;;;;;22.14;48.45;100595.19;4966559;28;20475;-74
2022/05/19 03:04:50;;;;;;;1.67;1.60;;;;;;;22.12;48.47;100597.47;4972085;28;20522;-74
2022/05/19 03:07:16;;;;;;;2.00;1.90;;;;;;;22.06;48.74;100604.28;4971942;28;20408;-74
2022/05/19 03:09:42;;;;;;;1.97;1.60;;;;;;;22.01;49.03;100607.16;4970483;28;20428;-74
2022/05/19 03:12:14;;;;;;;2.53;2.00;;;;;;;21.96;49.19;100613.66;4972571;28;20399;-74
2022/05/19 03:14:39;;;;;;;2.38;1.95;;;;;;;21.89;49.36;100609.66;4971833;28;20385;-74
2022/05/19 03:17:07;;;;;;;3.80;2.00;;;;;;;21.88;49.33;100608.03;4972137;28;20519;-74
2022/05/19 03:19:33;;;;;;;4.22;2.05;;;;;;;21.87;49.44;100603.63;4972609;28;20876;-74
2022/05/19 03:21:58;;;;;;;2.90;1.73;;;;;;;21.83;49.51;100611.75;4972359;28;20433;-74
2022/05/19 03:24:23;;;;;;;1.80;1.70;;;;;;;21.80;49.90;100611.56;4969256;28;20411;-74
2022/05/19 03:26:48;;;;;;;3.33;2.10;;;;;;;21.78;50.19;100600.84;4970349;28;20422;-74
2022/05/19 03:29:14;;;;;;;2.40;2.20;;;;;;;21.74;50.52;100614.44;4968062;28;20410;-74
2022/05/19 03:31:39;;;;;;;3.35;2.40;;;;;;;21.76;50.40;100613.31;4970321;28;20396;-74
2022/05/19 03:34:05;;;;;;;3.30;2.07;;;;;;;21.74;50.79;100608.09;4970288;28;20428;-74
2022/05/19 03:36:30;;;;;;;2.90;2.70;;;;;;;21.65;51.18;100610.81;4971492;28;20895;-74
2022/05/19 03:38:55;;;;;;;2.90;2.40;;;;;;;21.53;51.53;100613.34;4971794;28;20415;-74
2022/05/19 03:41:21;;;;;;;2.45;1.85;;;;;;;21.53;51.75;100612.53;4970941;28;20479;-74
2022/05/19 03:43:47;;;;;;;2.23;2.13;;;;;;;21.54;51.73;100611.38;4965496;28;20420;-74
2022/05/19 03:46:12;;;;;;;4.53;2.35;;;;;;;21.54;52.03;100614.13;4970250;28;20776;-74
2022/05/19 03:48:39;;;;;;;2.37;2.27;;;;;;;21.54;52.32;100605.88;4972438;28;20431;-74
2022/05/19 03:51:08;;;;;;;4.55;2.40;;;;;;;21.54;52.55;100608.63;4971927;28;20408;-74
2022/05/19 03:53:34;;;;;;;5.05;2.13;;;;;;;21.53;52.46;100604.25;4959775;28;20401;-74
2022/05/19 03:55:59;;;;;;;2.77;2.00;;;;;;;21.53;52.95;100607.84;4971431;28;20408;-74
2022/05/19 03:58:24;;;;;;;2.30;2.20;;;;;;;21.52;53.12;100610.88;4972193;28;20409;-74
2022/05/19 04:00:50;;;;;;;2.30;2.20;;;;;;;21.51;53.33;100604.56;4967683;28;20424;-74
2022/05/19 04:03:15;;;;;;;2.47;2.27;;;;;;;21.49;53.43;100609.59;4967020;28;20420;-74
2022/05/19 04:05:41;;;;;;;2.45;2.35;;;;;;;21.46;53.48;100612.16;4972269;28;20480;-74
2022/05/19 04:08:06;;;;;;;4.77;2.30;;;;;;;21.45;53.86;100616.03;4969997;28;20427;-74
2022/05/19 04:10:32;;;;;;;2.10;2.00;;;;;;;21.43;53.81;100618.28;4970215;28;20419;-74
2022/05/19 04:12:58;;;;;;;4.17;2.17;;;;;;;21.42;54.06;100627.69;4972553;28;21901;-74
2022/05/19 04:15:23;;;;;;;3.05;2.38;;;;;;;21.38;54.18;100621.16;4975282;28;20859;-74
2022/05/19 04:17:48;;;;;;;2.80;2.47;;;;;;;21.38;54.24;100624.72;4975547;28;20938;-74
2022/05/19 04:20:14;;;;;;;3.43;2.50;;;;;;;21.36;54.21;100626.19;4973396;28;20473;-74
2022/05/19 04:22:40;;;;;;;3.78;2.55;;;;;;;21.34;54.26;100637.50;4971476;28;20510;-74
2022/05/19 04:25:07;;;;;;;4.23;2.53;;;;;;;21.30;54.21;100639.28;4972415;28;20544;-74
2022/05/19 04:27:33;;;;;;;2.87;2.67;;;;;;;21.26;54.17;100630.00;4972962;28;20424;-74
2022/05/19 04:29:59;;;;;;;2.63;2.42;;;;;;;21.22;54.30;100631.75;4973664;28;20435;-74
2022/05/19 04:32:24;;;;;;;3.10;2.67;;;;;;;21.19;54.29;100637.88;4972752;28;20904;-74
2022/05/19 04:34:50;;;;;;;3.60;2.40;;;;;;;21.20;54.38;100642.28;4974912;28;20784;-74
2022/05/19 04:37:15;;;;;;;3.27;3.03;;;;;;;21.20;54.59;100643.09;4974949;28;20427;-74
2022/05/19 04:39:40;;;;;;;3.87;2.87;;;;;;;21.20;54.72;100650.53;4975209;28;20879;-74
2022/05/19 04:42:07;;;;;;;3.75;3.20;;;;;;;21.20;54.78;100648.59;4975064;28;20415;-74
2022/05/19 04:44:33;;;;;;;2.72;2.53;;;;;;;21.23;54.92;100647.16;4975208;28;20392;-74
2022/05/19 04:46:59;;;;;;;2.67;2.57;;;;;;;21.19;55.06;100643.38;4975090;28;20832;-74
2022/05/19 04:49:24;;;;;;;3.20;2.20;;;;;;;21.18;54.98;100639.81;4971160;28;20424;-74
2022/05/19 04:51:49;;;;;;;2.67;2.53;;;;;;;21.15;55.10;100651.47;4963096;28;20416;-74
2022/05/19 04:54:14;;;;;;;2.63;2.43;;;;;;;21.12;55.19;100648.50;4961956;28;20544;-74
2022/05/19 04:56:41;;;;;;;3.10;2.77;;;;;;;21.12;55.25;100643.00;4981634;28;20405;-76
2022/05/19 04:59:13;;;;;;;2.88;2.67;;;;;;;21.13;55.18;100653.72;4973265;28;20448;-76
2022/05/19 05:01:39;;;;;;;3.67;2.87;;;;;;;21.11;55.06;100650.44;4973853;28;20439;-75
2022/05/19 05:04:04;;;;;;;6.70;2.90;;;;;;;21.10;55.16;100651.59;4973186;28;20466;-74
2022/05/19 05:06:31;;;;;;;4.40;2.80;;;;;;;21.06;55.39;100650.53;4969290;28;20485;-76
2022/05/19 05:08:56;;;;;;;3.03;2.72;;;;;;;21.09;55.47;100657.38;4979817;28;20431;-76
2022/05/19 05:11:21;;;;;;;2.80;2.60;;;;;;;21.11;55.38;100660.66;4968257;28;20813;-76
2022/05/19 05:13:46;;;;;;;3.20;2.78;;;;;;;21.09;55.40;100665.63;4977412;28;20473;-76
2022/05/19 05:16:12;;;;;;;4.30;2.67;;;;;;;21.09;55.44;100671.13;4969299;28;20479;-76
2022/05/19 05:18:37;;;;;;;2.90;2.60;;;;;;;21.06;55.73;100671.75;4967549;28;20420;-75
2022/05/19 05:21:05;;;;;;;3.67;2.57;;;;;;;21.08;55.51;100664.81;4963771;28;20495;-76
2022/05/19 05:23:30;;;;;;;4.07;2.90;;;;;;;21.12;55.38;100670.56;4965041;28;20421;-75
2022/05/19 05:25:56;;;;;;;7.43;2.47;;;;;;;21.10;55.49;100670.88;4962248;28;20420;-76
2022/05/19 05:28:21;;;;;;;3.10;2.90;;;;;;;21.10;55.32;100672.81;4973435;28;20950;-75
2022/05/19 05:30:49;;;;;;;3.83;2.70;;;;;;;21.14;55.12;100665.56;4976149;28;20419;-74
2022/05/19 05:33:15;;;;;;;4.60;2.90;;;;;;;21.16;55.15;100675.16;4971758;28;20423;-75
2022/05/19 05:35:41;;;;;;;3.43;3.07;;;;;;;21.17;54.99;100676.75;4973662;28;20451;-75
2022/05/19 05:38:07;;;;;;;2.70;2.50;;;;;;;21.18;54.96;100675.63;4974200;28;20396;-74
2022/05/19 05:40:33;;;;;;;4.50;2.60;;;;;;;21.19;55.19;100682.78;4972697;28;20412;-74
2022/05/19 05:43:20;;;;;;;2.75;2.55;;;;;;;21.21;54.81;100682.47;4963166;28;20408;-74
2022/05/19 05:45:46;;;;;;;2.67;2.58;;;;;;;21.21;54.74;100688.81;4965582;28;20854;-74
2022/05/19 05:48:12;;;;;;;2.88;2.28;;;;;;;21.19;54.66;100691.06;4968491;28;20416;-74
2022/05/19 05:50:38;;;;;;;3.07;2.67;;;;;;;21.19;54.29;100706.78;4961792;28;20430;-74
2022/05/19 05:53:05;;;;;;;6.75;2.90;;;;;;;21.22;54.57;100697.88;4964830;28;20475;-73
2022/05/19 05:55:31;;;;;;;3.55;2.92;;;;;;;21.23;54.49;100702.28;4963655;28;20414;-73
2022/05/19 05:57:56;;;;;;;4.70;2.77;;;;;;;21.27;54.41;100702.47;4960924;28;20434;-73
2022/05/19 06:00:22;;;;;;;3.88;3.05;;;;;;;21.30;54.18;100707.38;4970498;28;20890;-74
2022/05/19 06:02:49;;;;;;;2.67;2.47;;;;;;;21.37;54.54;100710.53;4971673;28;20475;-74
2022/05/19 06:05:15;;;;;;;4.82;2.72;;;;;;;21.39;54.54;100711.03;4974997;28;20491;-74
2022/05/19 06:07:40;;;;;;;3.72;2.45;;;;;;;21.42;54.69;100705.69;4973329;28;20408;-74
2022/05/19 06:10:06;;;;;;;3.27;2.97;;;;;;;21.47;53.94;100710.28;4973499;28;20494;-74
2022/05/19 06:12:32;;;;;;;6.55;2.85;;;;;;;21.46;53.57;100711.41;4969692;28;20457;-74
2022/05/19 06:14:57;;;;;;;3.88;2.35;;;;;;;21.45;53.13;100712.53;4969139;28;20442;-74
2022/05/19 06:17:24;;;;;;;2.80;2.53;;;;;;;21.50;52.03;100704.97;4965282;28;20410;-74
2022/05/19 06:19:49;;;;;;;2.20;2.10;;;;;;;21.54;51.33;100705.97;4966422;28;20904;-74
2022/05/19 06:22:15;;;;;;;3.88;2.40;;;;;;;21.56;51.69;100711.19;4973709;28;20411;-74
2022/05/19 06:24:40;;;;;;;2.73;2.03;;;;;;;21.61;51.73;100711.88;4964824;28;21115;-74
2022/05/19 06:27:05;;;;;;;2.53;2.17;;;;;;;21.61;51.43;100711.03;4961789;28;20410;-74
2022/05/19 06:29:31;;;;;;;4.83;2.13;;;;;;;21.60;52.12;100706.69;4963596;28;20416;-74
2022/05/19 06:31:56;;;;;;;4.35;3.20;;;;;;;21.62;52.31;100710.75;4963116;28;20416;-74
2022/05/19 06:34:22;;;;;;;3.10;2.73;;;;;;;21.62;52.01;100715.44;4966653;28;20507;-74
2022/05/19 06:36:47;;;;;;;2.97;2.60;;;;;;;21.63;52.45;100709.63;4972711;28;20422;-74
2022/05/19 06:39:16;;;;;;;8.50;2.50;;;;;;;21.70;52.83;100709.97;4973217;28;20401;-73
2022/05/19 06:44:25;;;;;;;2.75;2.55;;;;;;;21.87;53.13;100711.22;4973153;28;20545;-74
2022/05/19 06:46:52;;;;;;;2.63;2.22;;;;;;;21.90;53.06;100710.66;4972308;28;21317;-74
2022/05/19 06:49:18;;;;;;;3.10;2.70;;;;;;;21.89;53.04;100725.56;4970644;28;20839;-74
2022/05/19 06:51:44;;;;;;;2.63;2.43;;;;;;;21.93;53.73;100732.09;4970223;28;20396;-74
2022/05/19 06:54:09;;;;;;;5.05;3.15;;;;;;;21.98;53.22;100732.78;4972712;28;20399;-74
2022/05/19 06:56:36;;;;;;;2.80;2.60;;;;;;;22.01;52.64;100739.63;4955863;28;20422;-73
2022/05/19 06:59:03;;;;;;;4.10;2.95;;;;;;;22.03;52.72;100740.13;4960189;28;20454;-74
2022/05/19 07:01:29;;;;;;;3.88;2.83;;;;;;;22.09;52.97;100741.63;4960282;28;20504;-74
2022/05/19 07:03:55;;;;;;;2.87;2.67;;;;;;;22.12;52.84;100744.59;4972668;28;20495;-74
2022/05/19 07:06:20;;;;;;;4.70;2.30;;;;;;;22.11;52.78;100737.44;4971769;28;20516;-74
2022/05/19 07:08:46;;;;;;;5.93;3.10;;;;;;;22.12;53.05;100735.47;4972888;28;20433;-74
2022/05/19 07:11:24;;;;;;;3.53;2.65;;;;;;;22.15;52.75;100738.44;4971881;28;20408;-74
2022/05/19 07:13:52;;;;;;;2.55;2.45;;;;;;;22.20;52.17;100734.72;4971908;28;20424;-74
2022/05/19 07:16:17;;;;;;;2.58;2.38;;;;;;;22.22;51.91;100738.81;4972584;28;20817;-74
2022/05/19 07:18:42;;;;;;;6.27;2.43;;;;;;;22.25;52.10;100740.13;4986634;28;20444;-74
2022/05/19 07:21:08;;;;;;;3.10;2.67;;;;;;;22.35;52.13;100747.31;4971306;28;20451;-74
2022/05/19 07:23:34;;;;;;;5.07;2.30;;;;;;;22.37;52.52;100739.50;4974637;28;20392;-74
2022/05/19 07:25:59;;;;;;;2.72;2.53;;;;;;;22.40;52.56;100738.88;4971850;28;20497;-74
2022/05/19 07:28:25;;;;;;;4.23;2.60;;;;;;;22.44;52.21;100743.47;4971117;28;20819;-74
2022/05/19 07:30:51;;;;;;;4.03;2.90;;;;;;;22.51;51.99;100749.34;4963267;28;20469;-74
2022/05/19 07:33:17;;;;;;;4.67;2.57;;;;;;;22.56;52.56;100751.97;4969078;28;20515;-74
2022/05/19 07:35:46;;;;;;;4.18;2.75;;;;;;;22.59;52.42;100742.25;4977275;28;20442;-74
2022/05/19 07:38:11;;;;;;;2.67;2.47;;;;;;;22.63;52.23;100741.28;4972352;28;20407;-74
2022/05/19 07:40:37;;;;;;;2.57;2.47;;;;;;;22.69;51.59;100740.03;4963061;28;20420;-74
2022/05/19 07:45:46;;;;;;;5.50;2.70;;;;;;;22.75;51.15;100736.00;4958119;28;20387;-74
2022/05/19 07:48:11;;;;;;;4.40;2.30;;;;;;;22.83;51.28;100733.59;4973157;28;20412;-73
2022/05/19 07:50:37;;;;;;;3.33;2.47;;;;;;;22.90;51.11;100742.22;4972546;28;20407;-73
2022/05/19 07:53:02;;;;;;;3.63;2.57;;;;;;;22.96;51.26;100744.53;4972643;28;20396;-74
2022/05/19 07:55:27;;;;;;;3.55;2.35;;;;;;;23.02;51.46;100739.69;4976115;28;20403;-74
2022/05/19 07:57:53;;;;;;;3.33;2.50;;;;;;;23.05;51.69;100734.31;4975957;28;20412;-74
2022/05/19 08:00:19;;;;;;;2.50;2.30;;;;;;;23.13;51.79;100729.94;4976108;28;20491;-74
2022/05/19 08:02:44;;;;;;;2.60;2.40;;;;;;;23.21;51.26;100734.69;4975635;28;20416;-74
2022/05/19 08:05:09;;;;;;;3.80;2.40;;;;;;;23.25;51.05;100735.66;4975778;28;20432;-74
2022/05/19 08:07:35;;;;;;;3.10;2.30;;;;;;;23.31;51.16;100730.78;4975991;28;20388;-74
2022/05/19 08:15:37;;;;;;;2.67;2.47;;;;;;;23.57;49.84;100729.72;4975623;28;20495;-74
2022/05/19 08:18:07;;;;;;;2.80;2.20;;;;;;;23.67;49.89;100729.41;4975789;28;20830;-74
2022/05/19 08:20:34;;;;;;;3.17;2.10;;;;;;;23.80;49.48;100735.09;4974685;28;20495;-74
2022/05/19 08:23:00;;;;;;;4.70;2.20;;;;;;;23.90;48.48;100737.53;4977518;28;20419;-74
2022/05/19 08:25:26;;;;;;;2.20;2.10;;;;;;;23.98;48.44;100740.25;4975753;28;20384;-74
2022/05/19 08:27:53;;;;;;;2.47;2.17;;;;;;;24.08;48.24;100745.47;4968934;28;20505;-74
2022/05/19 08:30:19;;;;;;;2.10;2.00;;;;;;;24.14;48.17;100735.88;4971329;28;20725;-74
2022/05/19 08:32:44;;;;;;;4.00;3.00;;;;;;;24.19;48.18;100746.78;4972537;28;20491;-74
2022/05/19 08:35:10;;;;;;;4.77;2.57;;;;;;;24.28;48.45;100749.53;4974159;28;20435;-74
2022/05/19 08:37:35;;;;;;;3.55;2.70;;;;;;;24.39;47.95;100747.22;4965658;28;20419;-74
2022/05/19 08:40:01;;;;;;;4.30;2.60;;;;;;;24.48;48.19;100746.06;4975297;28;20412;-74
2022/05/19 08:42:30;;;;;;;5.27;2.40;;;;;;;24.60;47.67;100748.16;4973401;28;20884;-74
2022/05/19 08:44:59;;;;;;;2.63;2.30;;;;;;;24.69;48.29;100746.16;4974750;28;20751;-74
2022/05/19 08:47:28;;;;;;;4.73;2.40;;;;;;;24.76;47.75;100738.94;4976411;28;20416;-74
2022/05/19 08:50:01;;;;;;;2.20;2.10;;;;;;;24.83;47.54;100744.00;4979937;28;20463;-74
2022/05/19 08:52:37;;;;;;;2.13;1.92;;;;;;;24.86;47.60;100728.66;4972997;28;20470;-74
2022/05/19 08:55:03;;;;;;;3.90;2.50;;;;;;;24.90;47.53;100735.97;4975014;28;20454;-74
2022/05/19 08:57:50;;;;;;;4.17;2.50;;;;;;;24.94;47.33;100730.56;4974834;28;20393;-74
2022/05/19 09:00:29;;;;;;;2.80;2.60;;;;;;;25.07;46.81;100726.75;4974094;28;20432;-74
2022/05/19 09:03:24;;;;;;;3.05;2.72;;;;;;;25.15;46.61;100718.38;4974812;28;20836;-74
2022/05/19 09:06:15;;;;;;;2.40;2.20;;;;;;;25.19;47.59;100719.31;4974965;28;20755;-73
2022/05/19 09:09:00;;;;;;;2.50;2.30;;;;;;;25.33;46.93;100724.63;4961236;28;20428;-74
2022/05/19 09:11:39;;;;;;;5.18;2.10;;;;;;;25.39;46.64;100731.59;4974690;28;20395;-74
2022/05/19 09:14:23;;;;;;;7.60;2.40;;;;;;;25.46;47.01;100722.72;4964898;28;20408;-74
2022/05/19 09:16:50;;;;;;;4.35;2.65;;;;;;;25.55;47.27;100716.00;4966737;28;20489;-74
2022/05/19 09:19:41;;;;;;;2.35;2.10;;;;;;;25.66;45.87;100714.44;4968543;28;20463;-74
2022/05/19 09:22:15;;;;;;;3.60;2.28;;;;;;;25.74;46.20;100712.75;4966240;28;20411;-74
2022/05/19 09:24:43;;;;;;;4.53;2.63;;;;;;;25.86;45.87;100714.75;4980651;28;20506;-74
2022/05/19 09:27:08;;;;;;;2.30;2.20;;;;;;;25.98;45.58;100707.31;4968569;28;20388;-74
2022/05/19 09:29:40;;;;;;;2.53;2.33;;;;;;;26.08;44.69;100709.63;4972632;28;20836;-74
2022/05/19 09:32:06;;;;;;;3.05;2.03;;;;;;;26.19;44.62;100712.81;4973044;28;20524;-73
2022/05/19 09:34:34;;;;;;;2.97;2.77;;;;;;;26.30;45.39;100705.69;4973225;28;20511;-73
2022/05/19 09:37:03;;;;;;;3.70;2.40;;;;;;;26.47;44.81;100705.47;4972874;28;20427;-74
2022/05/19 09:39:33;;;;;;;5.20;2.20;;;;;;;26.59;44.62;100701.88;4984767;28;20429;-74
2022/05/19 09:42:05;;;;;;;2.55;2.35;;;;;;;26.73;44.81;100694.84;4974097;28;20396;-74
2022/05/19 09:44:35;;;;;;;3.20;2.88;;;;;;;26.93;43.83;100692.31;4971718;28;20419;-74
2022/05/19 09:47:15;;;;;;;4.25;2.25;;;;;;;27.12;44.09;100698.91;4973140;28;20784;-73
2022/05/19 09:49:44;;;;;;;3.17;2.28;;;;;;;27.33;43.88;100687.63;4967724;28;20487;-73
2022/05/19 09:52:17;;;;;;;2.10;1.87;;;;;;;27.55;43.97;100683.53;4973192;28;20419;-73
2022/05/19 09:54:45;;;;;;;3.25;2.20;;;;;;;27.78;43.15;100688.19;4979020;28;20412;-73
2022/05/19 09:57:18;;;;;;;4.18;2.05;;;;;;;28.23;42.28;100687.03;4973808;28;20399;-73
2022/05/19 09:59:52;;;;;;;2.92;2.47;;;;;;;28.91;40.89;100684.84;4972861;28;20451;-73
2022/05/19 10:02:32;;;;;;;2.45;2.25;;;;;;;29.77;39.02;100686.34;4972309;28;20408;-73
2022/05/19 10:05:01;;;;;;;5.22;2.20;;;;;;;30.47;37.69;100694.50;4981447;28;20407;-74
2022/05/19 10:07:37;;;;;;;3.40;1.90;;;;;;;31.11;36.75;100695.56;4973616;28;20423;-73
2022/05/19 10:10:15;;;;;;;1.80;1.73;;;;;;;31.60;36.03;100687.06;4972303;28;20427;-72
2022/05/19 10:12:47;;;;;;;4.45;2.17;;;;;;;32.31;34.52;100685.88;4973506;28;20400;-73
2022/05/19 10:15:16;;;;;;;2.97;2.20;;;;;;;33.03;33.41;100679.69;4973024;28;20400;-71
2022/05/19 10:17:51;;;;;;;2.90;1.90;;;;;;;33.31;33.23;100675.06;4987435;28;20473;-71
2022/05/19 10:20:25;;;;;;;1.93;1.80;;;;;;;33.79;32.47;100677.69;4973810;28;20404;-71
2022/05/19 10:23:21;;;;;;;3.42;1.70;;;;;;;34.24;31.85;100676.25;4972537;28;20863;-71
2022/05/19 10:26:04;;;;;;;2.47;1.73;;;;;;;34.70;30.89;100681.91;4974669;28;20431;-71
2022/05/19 10:31:29;;;;;;;3.43;1.57;;;;;;;35.43;30.03;100666.88;4982587;28;20462;-71
2022/05/19 10:34:19;;;;;;;2.10;1.90;;;;;;;35.86;28.65;100664.69;4973486;28;20450;-71
2022/05/19 10:37:00;;;;;;;3.20;1.48;;;;;;;36.32;27.85;100650.34;4970092;28;20816;-72
2022/05/19 10:39:50;;;;;;;5.70;1.70;;;;;;;36.39;27.37;100649.47;4969966;28;20959;-71
2022/05/19 10:42:41;;;;;;;2.10;1.65;;;;;;;36.91;26.64;100650.22;4972879;28;20466;-72
2022/05/19 10:45:13;;;;;;;2.55;1.90;;;;;;;37.44;25.38;100655.31;4960410;28;20496;-72
2022/05/19 10:47:53;;;;;;;2.47;1.93;;;;;;;37.53;25.44;100654.81;4973224;28;20385;-72
2022/05/19 10:50:35;;;;;;;1.83;1.65;;;;;;;37.69;25.51;100657.81;4971054;28;20427;-71
2022/05/19 10:53:26;;;;;;;2.90;1.83;;;;;;;37.38;25.29;100652.13;4961869;28;20480;-72
2022/05/19 10:56:08;;;;;;;5.50;1.90;;;;;;;37.40;25.59;100648.88;4972830;28;20396;-72
2022/05/19 10:58:54;;;;;;;5.07;1.90;;;;;;;37.61;25.10;100648.63;4964168;28;20490;-72
2022/05/19 11:01:57;;;;;;;3.92;1.77;;;;;;;37.97;25.04;100642.53;4965813;28;20404;-72
2022/05/19 11:04:45;;;;;;;2.90;1.98;;;;;;;38.37;24.65;100647.94;4968578;28;20417;-73
2022/05/19 11:07:25;;;;;;;1.90;1.80;;;;;;;38.46;24.18;100640.94;4965056;28;20404;-73
2022/05/19 11:10:17;;;;;;;3.25;1.98;;;;;;;38.97;24.14;100636.78;4969261;28;20440;-73
2022/05/19 11:12:46;;;;;;;5.80;2.20;;;;;;;39.04;23.85;100639.50;4973628;28;20459;-73
2022/05/19 11:15:21;;;;;;;3.42;2.10;;;;;;;39.10;23.46;100638.56;4972723;28;20419;-73
2022/05/19 11:18:03;;;;;;;6.30;1.92;;;;;;;39.22;23.16;100626.59;4973986;28;20404;-73
2022/05/19 11:21:03;;;;;;;1.77;1.67;;;;;;;39.09;23.09;100624.84;4969322;28;20419;-73
2022/05/19 11:23:40;;;;;;;5.03;1.80;;;;;;;39.32;23.35;100621.97;4960282;28;20809;-73
2022/05/19 11:26:24;;;;;;;4.28;1.83;;;;;;;39.20;23.16;100620.53;4967346;28;20419;-73
2022/05/19 11:28:54;;;;;;;2.95;2.00;;;;;;;39.08;23.15;100611.88;4966460;28;20507;-72
2022/05/19 11:31:36;;;;;;;1.58;1.42;;;;;;;39.14;22.99;100619.44;4971675;28;20455;-72
2022/05/19 11:34:14;;;;;;;7.57;2.10;;;;;;;39.09;22.87;100610.66;4990089;28;20422;-72
2022/05/19 11:36:51;;;;;;;4.70;2.13;;;;;;;38.78;23.26;100605.16;4974403;28;20423;-72
2022/05/19 11:39:43;;;;;;;2.20;1.50;;;;;;;38.13;23.75;100603.06;4973956;28;20503;-72
2022/05/19 11:42:31;;;;;;;5.03;2.10;;;;;;;37.71;24.23;100598.81;4975191;28;20416;-72
2022/05/19 11:44:57;;;;;;;3.10;1.50;;;;;;;37.87;23.72;100613.91;4973933;28;20403;-72
2022/05/19 11:56:18;;;;;;;1.60;1.50;;;;;;;36.14;25.25;100600.88;4976408;28;20411;-71
2022/05/19 11:58:44;;;;;;;8.20;2.00;;;;;;;36.05;25.37;100601.31;4968763;28;20412;-71
2022/05/19 12:01:24;;;;;;;3.60;1.52;;;;;;;36.10;25.49;100600.09;4975835;28;21383;-71